createdAt,value
2023-03-11T00:00:22.781Z,45817.91
2023-03-11T00:02:51.378Z,45813.94
2023-03-11T00:05:24.202Z,45817.91
2023-03-11T00:07:51.448Z,45789.94
2023-03-11T00:10:25.338Z,45805.94
2023-03-11T00:12:51.841Z,45791.94
2023-03-11T00:15:18.874Z,45805.94
2023-03-11T00:17:47.003Z,45789.94
2023-03-11T00:20:25.761Z,45799.94
2023-03-11T00:22:52.784Z,45793.94
2023-03-11T00:25:20.367Z,45827.91
2023-03-11T00:27:46.854Z,45789.94
2023-03-11T00:30:14.778Z,45797.94
2023-03-11T00:32:41.489Z,45813.94
2023-03-11T00:35:08.995Z,45789.94
2023-03-11T00:37:35.437Z,45809.94
2023-03-11T00:40:01.870Z,45789.94
2023-03-11T00:42:28.703Z,45829.91
2023-03-11T00:44:55.128Z,45803.94
2023-03-11T00:47:21.775Z,45805.94
2023-03-11T00:49:48.247Z,45821.91
2023-03-11T00:52:15.111Z,45813.94
2023-03-11T00:54:41.490Z,45811.94
2023-03-11T00:57:08.248Z,45813.94
2023-03-11T00:59:35.634Z,45797.94
2023-03-11T01:02:02.034Z,45823.91
2023-03-11T01:04:28.636Z,45789.94
2023-03-11T01:06:55.069Z,45799.94
2023-03-11T01:09:21.709Z,45797.94
2023-03-11T01:11:48.183Z,45797.94
2023-03-11T01:14:14.844Z,45767.97
2023-03-11T01:16:41.246Z,45819.91
2023-03-11T01:19:08.662Z,45811.94
2023-03-11T01:21:35.145Z,45801.94
2023-03-11T01:24:01.537Z,45811.94
2023-03-11T01:26:27.981Z,45809.94
2023-03-11T01:28:55.780Z,45815.94
2023-03-11T01:31:22.271Z,45789.94
2023-03-11T01:33:49.088Z,45793.94
2023-03-11T01:36:15.523Z,45809.94
2023-03-11T01:38:41.905Z,45797.94
2023-03-11T01:41:11.146Z,45781.94
2023-03-11T01:43:43.808Z,45805.94
2023-03-11T01:46:13.592Z,45781.94
2023-03-11T01:48:46.571Z,45791.94
2023-03-11T01:51:13.564Z,45805.94
2023-03-11T01:53:40.198Z,45799.94
2023-03-11T01:56:07.112Z,45785.94
2023-03-11T01:58:40.717Z,45837.91
2023-03-11T02:01:07.657Z,45821.91
2023-03-11T02:03:37.666Z,45821.91
2023-03-11T02:06:08.156Z,45805.94
2023-03-11T02:08:36.027Z,45825.91
2023-03-11T02:11:08.128Z,45807.94
2023-03-11T02:13:36.122Z,45827.91
2023-03-11T02:16:04.189Z,45801.94
2023-03-11T02:18:31.575Z,45809.94
2023-03-11T02:25:34.549Z,45829.91
2023-03-11T02:28:05.332Z,45809.94
2023-03-11T02:30:34.485Z,45813.94
2023-03-11T02:33:02.090Z,45815.94
2023-03-11T02:35:28.805Z,45821.91
2023-03-11T02:37:56.128Z,45805.94
2023-03-11T02:40:23.221Z,45825.91
2023-03-11T02:43:02.546Z,45817.91
2023-03-11T02:45:30.630Z,45815.94
2023-03-11T02:47:59.436Z,45805.94
2023-03-11T02:50:28.479Z,45821.91
2023-03-11T02:52:55.410Z,45785.94
2023-03-11T02:55:22.967Z,45821.91
2023-03-11T02:57:50.021Z,45801.94
2023-03-11T03:00:17.704Z,45811.94
2023-03-11T03:02:52.235Z,45817.91
2023-03-11T03:05:20.762Z,45841.91
2023-03-11T03:07:48.343Z,45813.94
2023-03-11T03:10:16.182Z,45793.94
2023-03-11T03:12:42.641Z,45809.94
2023-03-11T03:15:11.017Z,45801.94
2023-03-11T03:17:38.128Z,45799.94
2023-03-11T03:20:11.246Z,45813.94
2023-03-11T03:22:41.030Z,45843.91
2023-03-11T03:25:10.618Z,45813.94
2023-03-11T03:27:38.528Z,45803.94
2023-03-11T03:30:08.159Z,45813.94
2023-03-11T03:32:35.808Z,45829.91
2023-03-11T03:35:03.853Z,45821.91
2023-03-11T03:37:51.989Z,45825.91
2023-03-11T03:40:21.207Z,45821.91
2023-03-11T03:42:47.724Z,45807.94
2023-03-11T03:45:14.755Z,45805.94
2023-03-11T03:47:41.252Z,45813.94
2023-03-11T03:50:10.216Z,45837.91
2023-03-11T03:52:38.589Z,45793.94
2023-03-11T03:55:05.726Z,45829.91
2023-03-11T03:57:32.485Z,45821.91
2023-03-11T03:59:59.072Z,45809.94
2023-03-11T04:02:25.965Z,45813.94
2023-03-11T04:04:53.892Z,45805.94
2023-03-11T04:07:20.393Z,45811.94
2023-03-11T04:09:47.127Z,45805.94
2023-03-11T04:12:15.412Z,45805.94
2023-03-11T04:14:42.097Z,45805.94
2023-03-11T04:17:11.916Z,45817.91
2023-03-11T04:19:39.225Z,45819.91
2023-03-11T04:22:05.969Z,45809.94
2023-03-11T04:24:33.134Z,45801.94
2023-03-11T04:26:59.711Z,45825.91
2023-03-11T04:29:26.180Z,45849.91
2023-03-11T04:31:53.768Z,45823.91
2023-03-11T04:34:20.797Z,45841.91
2023-03-11T04:36:47.377Z,45837.91
2023-03-11T04:39:16.035Z,45841.91
2023-03-11T04:41:44.167Z,45825.91
2023-03-11T04:44:15.442Z,45841.91
2023-03-11T04:46:42.090Z,45815.94
2023-03-11T04:49:10.292Z,45823.91
2023-03-11T04:51:37.297Z,45833.91
2023-03-11T04:54:04.853Z,45833.91
2023-03-11T04:56:31.319Z,45817.91
2023-03-11T04:58:59.342Z,45825.91
2023-03-11T05:01:27.645Z,45829.91
2023-03-11T05:03:55.632Z,45821.91
2023-03-11T05:06:22.048Z,45815.94
2023-03-11T05:08:48.668Z,45823.91
2023-03-11T05:11:15.292Z,45811.94
2023-03-11T05:13:44.189Z,45821.91
2023-03-11T05:16:11.337Z,45809.94
2023-03-11T05:18:38.067Z,45839.91
2023-03-11T05:21:05.219Z,45823.91
2023-03-11T05:23:33.474Z,45813.94
2023-03-11T05:26:01.070Z,45805.94
2023-03-11T05:28:29.236Z,45797.94
2023-03-11T05:30:55.845Z,45847.91
2023-03-11T05:33:22.865Z,45817.91
2023-03-11T05:35:51.828Z,45827.91
2023-03-11T05:38:19.332Z,45835.91
2023-03-11T05:40:45.843Z,45811.94
2023-03-11T05:43:12.444Z,45819.91
2023-03-11T05:45:41.534Z,45837.91
2023-03-11T05:48:08.096Z,45841.91
2023-03-11T05:50:37.627Z,45807.94
2023-03-11T05:53:04.062Z,45827.91
2023-03-11T05:55:31.277Z,45829.91
2023-03-11T05:57:57.754Z,45817.91
2023-03-11T06:00:24.234Z,45801.94
2023-03-11T06:02:52.713Z,45819.91
2023-03-11T06:05:19.820Z,45831.91
2023-03-11T06:07:48.387Z,45813.94
2023-03-11T06:10:14.989Z,45821.91
2023-03-11T06:12:41.939Z,45819.91
2023-03-11T06:15:30.140Z,45839.91
2023-03-11T06:17:56.777Z,45825.91
2023-03-11T06:20:24.955Z,45829.91
2023-03-11T06:22:52.455Z,45825.91
2023-03-11T06:25:22.540Z,45813.94
2023-03-11T06:27:53.625Z,45817.91
2023-03-11T06:30:22.184Z,45829.91
2023-03-11T06:32:56.113Z,45833.91
2023-03-11T06:35:22.806Z,45825.91
2023-03-11T06:37:49.248Z,45837.91
2023-03-11T06:40:16.030Z,45819.91
2023-03-11T06:42:42.626Z,45865.88
2023-03-11T06:45:11.019Z,45821.91
2023-03-11T06:47:38.259Z,45829.91
2023-03-11T06:50:07.283Z,45835.91
2023-03-11T06:52:33.741Z,45829.91
2023-03-11T06:55:00.244Z,45833.91
2023-03-11T06:57:27.827Z,45813.94
2023-03-11T06:59:56.289Z,45841.91
2023-03-11T07:02:22.688Z,45829.91
2023-03-11T07:04:49.869Z,45831.91
2023-03-11T07:07:18.475Z,45825.91
2023-03-11T07:09:44.948Z,45829.91
2023-03-11T07:12:14.826Z,45799.94
2023-03-11T07:14:41.520Z,45817.91
2023-03-11T07:17:08.005Z,45825.91
2023-03-11T07:19:44.091Z,45801.94
2023-03-11T07:22:10.469Z,45821.91
2023-03-11T07:24:37.165Z,45827.91
2023-03-11T07:27:03.734Z,45823.91
2023-03-11T07:29:30.151Z,45819.91
2023-03-11T07:31:56.590Z,45813.94
2023-03-11T07:34:23.068Z,45837.91
2023-03-11T07:36:49.563Z,45801.94
2023-03-11T07:39:18.887Z,45813.94
2023-03-11T07:41:45.862Z,45801.94
2023-03-11T07:44:13.729Z,45805.94
2023-03-11T07:46:40.951Z,45793.94
2023-03-11T07:49:07.926Z,45799.94
2023-03-11T07:51:37.102Z,45821.91
2023-03-11T07:54:04.655Z,45829.91
2023-03-11T07:56:34.826Z,45803.94
2023-03-11T07:59:03.008Z,45805.94
2023-03-11T08:01:35.958Z,45809.94
2023-03-11T08:04:05.161Z,45801.94
2023-03-11T08:06:33.346Z,45805.94
2023-03-11T08:09:01.243Z,45807.94
2023-03-11T08:11:28.321Z,45789.94
2023-03-11T08:13:55.076Z,45801.94
2023-03-11T08:16:22.371Z,45795.94
2023-03-11T08:18:50.441Z,45779.94
2023-03-11T08:21:20.009Z,45779.94
2023-03-11T08:23:46.396Z,45777.94
2023-03-11T08:26:18.071Z,45793.94
2023-03-11T08:28:44.961Z,45773.94
2023-03-11T08:31:16.267Z,45801.94
2023-03-11T08:33:44.707Z,45771.94
2023-03-11T08:36:11.873Z,45795.94
2023-03-11T08:38:38.963Z,45793.94
2023-03-11T08:41:05.614Z,45777.94
2023-03-11T08:43:32.417Z,45763.97
2023-03-11T08:46:03.386Z,45771.94
2023-03-11T08:48:30.103Z,45769.97
2023-03-11T08:50:56.527Z,45777.94
2023-03-11T08:53:23.056Z,45769.97
2023-03-11T08:55:51.339Z,45783.94
2023-03-11T08:58:19.117Z,45781.94
2023-03-11T09:00:46.178Z,45773.94
2023-03-11T09:03:13.445Z,45765.97
2023-03-11T09:05:39.983Z,45761.97
2023-03-11T09:08:06.375Z,45741.97
2023-03-11T09:10:33.300Z,45753.97
2023-03-11T09:12:59.690Z,45771.94
2023-03-11T09:15:26.666Z,45749.97
2023-03-11T09:17:53.851Z,45745.97
2023-03-11T09:20:20.423Z,45779.94
2023-03-11T09:22:47.177Z,45741.97
2023-03-11T09:25:14.518Z,45749.97
2023-03-11T09:27:41.316Z,45716.00
2023-03-11T09:30:09.901Z,45755.97
2023-03-11T09:32:37.115Z,45729.97
2023-03-11T09:35:04.036Z,45741.97
2023-03-11T09:37:30.810Z,45737.97
2023-03-11T09:39:57.247Z,45741.97
2023-03-11T09:42:42.695Z,45725.97
2023-03-11T09:45:16.723Z,45761.97
2023-03-11T09:47:55.550Z,45729.97
2023-03-11T09:50:32.303Z,45722.00
2023-03-11T09:53:23.543Z,45733.97
2023-03-11T09:55:58.530Z,45725.97
2023-03-11T09:58:24.866Z,45737.97
2023-03-11T10:00:52.138Z,45720.00
2023-03-11T10:03:32.540Z,45729.97
2023-03-11T10:06:11.751Z,45741.97
2023-03-11T10:08:52.201Z,45729.97
2023-03-11T10:11:33.593Z,45706.00
2023-03-11T10:14:09.053Z,45729.97
2023-03-11T10:16:50.110Z,45700.00
2023-03-11T10:19:25.623Z,45702.00
2023-03-11T10:22:26.831Z,45714.00
2023-03-11T10:25:03.091Z,45710.00
2023-03-11T10:27:35.027Z,45718.00
2023-03-11T10:30:23.074Z,45706.00
2023-03-11T10:33:17.259Z,45706.00
2023-03-11T10:35:48.076Z,45688.00
2023-03-11T10:38:48.105Z,45698.00
2023-03-11T10:41:42.136Z,45684.00
2023-03-11T10:44:16.659Z,45690.00
2023-03-11T10:46:43.052Z,45702.00
2023-03-11T10:49:15.372Z,45686.00
2023-03-11T10:51:46.020Z,45698.00
2023-03-11T10:54:28.205Z,45690.00
2023-03-11T10:56:58.120Z,45670.03
2023-03-11T10:59:27.302Z,45694.00
2023-03-11T11:02:27.886Z,45662.03
2023-03-11T11:05:16.038Z,45672.03
2023-03-11T11:07:43.839Z,45674.03
2023-03-11T11:10:23.586Z,45630.06
2023-03-11T11:13:08.293Z,45618.06
2023-03-11T11:15:37.372Z,45614.06
2023-03-11T11:18:07.240Z,45622.06
2023-03-11T11:20:34.317Z,45622.06
2023-03-11T11:23:03.553Z,45626.06
2023-03-11T11:25:34.846Z,45622.06
2023-03-11T11:28:14.518Z,45618.06
2023-03-11T11:31:05.223Z,45626.06
2023-03-11T11:33:38.522Z,45614.06
2023-03-11T11:36:06.890Z,45608.06
2023-03-11T11:38:34.114Z,45606.06
2023-03-11T11:41:04.769Z,45588.09
2023-03-11T11:43:46.249Z,45594.09
2023-03-11T11:46:21.372Z,45594.09
2023-03-11T11:48:57.742Z,45566.09
2023-03-11T11:51:35.120Z,45538.13
2023-03-11T11:54:15.241Z,45550.13
2023-03-11T11:56:41.934Z,45558.09
2023-03-11T11:59:17.810Z,45560.09
2023-03-11T12:02:08.572Z,45558.09
2023-03-11T12:04:49.942Z,45556.09
2023-03-11T12:07:22.040Z,45554.09
2023-03-11T12:09:58.285Z,45506.16
2023-03-11T12:13:12.559Z,45498.16
2023-03-11T12:15:44.039Z,45518.13
2023-03-11T12:18:19.424Z,45526.13
2023-03-11T12:20:52.116Z,45526.13
2023-03-11T12:23:24.614Z,45526.13
2023-03-11T12:26:00.175Z,45544.13
2023-03-11T12:28:39.602Z,45502.16
2023-03-11T12:31:10.386Z,45534.13
2023-03-11T12:33:38.696Z,45536.13
2023-03-11T12:36:07.034Z,45522.13
2023-03-11T12:38:40.155Z,45510.16
2023-03-11T12:41:26.285Z,45508.16
2023-03-11T12:43:52.631Z,45512.16
2023-03-11T12:46:19.529Z,45514.13
2023-03-11T12:48:50.322Z,45482.16
2023-03-11T12:51:34.050Z,45466.19
2023-03-11T12:54:20.741Z,45486.16
2023-03-11T12:57:14.462Z,45462.19
2023-03-11T13:00:18.286Z,45468.19
2023-03-11T13:03:13.839Z,45450.19
2023-03-11T13:06:16.636Z,45414.22
2023-03-11T13:08:49.755Z,45422.22
2023-03-11T13:11:31.389Z,45422.22
2023-03-11T13:14:29.371Z,45386.25
2023-03-11T13:16:57.828Z,45394.22
2023-03-11T13:19:26.984Z,45400.22
2023-03-11T13:21:54.728Z,45382.25
2023-03-11T13:24:22.022Z,45390.25
2023-03-11T13:26:56.971Z,45396.22
2023-03-11T13:29:26.341Z,45378.25
2023-03-11T13:32:30.547Z,45386.25
2023-03-11T13:35:00.051Z,45362.25
2023-03-11T13:38:05.652Z,45354.25
2023-03-11T13:40:39.411Z,45368.25
2023-03-11T13:43:24.969Z,45346.28
2023-03-11T13:46:09.979Z,45374.25
2023-03-11T13:48:42.076Z,45362.25
2023-03-11T13:51:16.859Z,45354.25
2023-03-11T13:54:02.417Z,45356.25
2023-03-11T13:56:44.343Z,45362.25
2023-03-11T13:59:28.486Z,45384.25
2023-03-11T14:02:17.148Z,45382.25
2023-03-11T14:05:06.869Z,45392.22
2023-03-11T14:07:35.294Z,45392.22
2023-03-11T14:10:20.710Z,45398.22
2023-03-11T14:12:48.314Z,45390.25
2023-03-11T14:15:20.450Z,45398.22
2023-03-11T14:17:48.766Z,45402.22
2023-03-11T14:20:18.176Z,45400.22
2023-03-11T14:22:51.002Z,45414.22
2023-03-11T14:25:21.932Z,45400.22
2023-03-11T14:27:53.900Z,45382.25
2023-03-11T14:30:26.342Z,45402.22
2023-03-11T14:33:06.322Z,45410.22
2023-03-11T14:35:34.248Z,45396.22
2023-03-11T14:38:01.327Z,45396.22
2023-03-11T14:40:31.473Z,45418.22
2023-03-11T14:43:01.960Z,45402.22
2023-03-11T14:45:32.614Z,45418.22
2023-03-11T14:48:15.016Z,45414.22
2023-03-11T14:50:44.660Z,45452.19
2023-03-11T14:53:19.424Z,45446.19
2023-03-11T14:55:57.999Z,45450.19
2023-03-11T14:58:39.888Z,45450.19
2023-03-11T15:01:15.461Z,45454.19
2023-03-11T15:03:50.409Z,45460.19
2023-03-11T15:06:20.118Z,45478.16
2023-03-11T15:08:50.398Z,45474.16
2023-03-11T15:11:16.687Z,45498.16
2023-03-11T15:13:47.217Z,45506.16
2023-03-11T15:16:31.156Z,45530.13
2023-03-11T15:19:20.226Z,45508.16
2023-03-11T15:21:48.172Z,45522.13
2023-03-11T15:24:25.879Z,45494.16
2023-03-11T15:26:56.757Z,45514.13
2023-03-11T15:29:25.069Z,45542.13
2023-03-11T15:31:51.574Z,45526.13
2023-03-11T15:34:17.908Z,45526.13
2023-03-11T15:36:47.440Z,45550.13
2023-03-11T15:39:32.008Z,45540.13
2023-03-11T15:42:01.089Z,45528.13
2023-03-11T15:44:33.288Z,45552.13
2023-03-11T15:47:00.711Z,45538.13
2023-03-11T15:49:28.537Z,45566.09
2023-03-11T15:52:02.048Z,45540.13
2023-03-11T15:54:28.959Z,45552.13
2023-03-11T15:56:58.444Z,45542.13
2023-03-11T15:59:25.533Z,45556.09
2023-03-11T16:01:51.918Z,45554.09
2023-03-11T16:04:20.578Z,45568.09
2023-03-11T16:06:59.471Z,45578.09
2023-03-11T16:09:34.157Z,45578.09
2023-03-11T16:12:01.807Z,45570.09
2023-03-11T16:14:28.209Z,45578.09
2023-03-11T16:16:54.607Z,45588.09
2023-03-11T16:19:20.993Z,45578.09
2023-03-11T16:21:50.155Z,45570.09
2023-03-11T16:24:21.215Z,45584.09
2023-03-11T16:26:48.024Z,45608.06
2023-03-11T16:29:19.484Z,45580.09
2023-03-11T16:31:46.433Z,45610.06
2023-03-11T16:34:12.827Z,45578.09
2023-03-11T16:36:39.209Z,45602.06
2023-03-11T16:39:05.758Z,45578.09
2023-03-11T16:41:43.834Z,45598.06
2023-03-11T16:44:10.438Z,45604.06
2023-03-11T16:46:37.456Z,45594.09
2023-03-11T16:49:05.095Z,45598.06
2023-03-11T16:51:31.555Z,45606.06
2023-03-11T16:53:57.947Z,45592.09
2023-03-11T16:56:24.631Z,45612.06
2023-03-11T16:58:51.348Z,45614.06
2023-03-11T17:01:19.067Z,45602.06
2023-03-11T17:03:48.509Z,45590.09
2023-03-11T17:06:16.947Z,45594.09
2023-03-11T17:08:48.747Z,45614.06
2023-03-11T17:11:20.589Z,45622.06
2023-03-11T17:13:46.982Z,45638.06
2023-03-11T17:16:13.663Z,45606.06
2023-03-11T17:18:40.112Z,45642.03
2023-03-11T17:21:12.114Z,45640.03
2023-03-11T17:23:38.834Z,45622.06
2023-03-11T17:26:09.910Z,45632.06
2023-03-11T17:28:37.007Z,45646.03
2023-03-11T17:31:03.619Z,45666.03
2023-03-11T17:33:30.166Z,45646.03
2023-03-11T17:36:01.645Z,45634.06
2023-03-11T17:38:29.319Z,45650.03
2023-03-11T17:40:56.430Z,45654.03
2023-03-11T17:43:23.401Z,45670.03
2023-03-11T17:45:50.122Z,45656.03
2023-03-11T17:48:16.808Z,45652.03
2023-03-11T17:50:43.396Z,45630.06
2023-03-11T17:53:09.792Z,45670.03
2023-03-11T17:55:39.546Z,45670.03
2023-03-11T17:58:06.141Z,45678.03
2023-03-11T18:00:32.760Z,45676.03
2023-03-11T18:02:59.171Z,45670.03
2023-03-11T18:05:25.660Z,45680.03
2023-03-11T18:07:52.216Z,45674.03
2023-03-11T18:10:20.021Z,45678.03
2023-03-11T18:12:47.446Z,45704.00
2023-03-11T18:15:18.797Z,45686.00
2023-03-11T18:17:48.741Z,45708.00
2023-03-11T18:20:16.383Z,45706.00
2023-03-11T18:22:46.779Z,45702.00
2023-03-11T18:25:13.823Z,45698.00
2023-03-11T18:27:41.119Z,45710.00
2023-03-11T18:30:10.525Z,45698.00
2023-03-11T18:32:37.378Z,45710.00
2023-03-11T18:35:04.791Z,45706.00
2023-03-11T18:37:32.688Z,45698.00
2023-03-11T18:39:59.529Z,45694.00
2023-03-11T18:42:25.972Z,45710.00
2023-03-11T18:44:52.358Z,45710.00
2023-03-11T18:47:18.761Z,45729.97
2023-03-11T18:49:46.316Z,45725.97
2023-03-11T18:52:13.025Z,45737.97
2023-03-11T18:54:39.627Z,45718.00
2023-03-11T18:57:06.098Z,45718.00
2023-03-11T18:59:32.740Z,45704.00
2023-03-11T19:01:59.177Z,45729.97
2023-03-11T19:04:25.611Z,45735.97
2023-03-11T19:06:52.285Z,45749.97
2023-03-11T19:09:18.728Z,45722.00
2023-03-11T19:11:46.228Z,45706.00
2023-03-11T19:14:12.879Z,45712.00
2023-03-11T19:16:39.314Z,45714.00
2023-03-11T19:19:05.689Z,45725.97
2023-03-11T19:21:32.060Z,45737.97
2023-03-11T19:23:59.848Z,45753.97
2023-03-11T19:26:43.207Z,45733.97
2023-03-11T19:29:10.706Z,45735.97
2023-03-11T19:31:37.454Z,45741.97
2023-03-11T19:34:03.908Z,45724.00
2023-03-11T19:36:30.300Z,45724.00
2023-03-11T19:38:56.695Z,45729.97
2023-03-11T19:41:23.181Z,45722.00
2023-03-11T19:43:49.715Z,45749.97
2023-03-11T19:46:18.896Z,45741.97
2023-03-11T19:48:45.319Z,45747.97
2023-03-11T19:51:12.047Z,45739.97
2023-03-11T19:53:40.390Z,45737.97
2023-03-11T19:56:07.382Z,45753.97
2023-03-11T19:58:33.939Z,45729.97
2023-03-11T20:01:02.010Z,45724.00
2023-03-11T20:03:29.072Z,45749.97
2023-03-11T20:05:57.760Z,45725.97
2023-03-11T20:08:25.306Z,45729.97
2023-03-11T20:10:53.180Z,45737.97
2023-03-11T20:13:21.700Z,45722.00
2023-03-11T20:15:48.665Z,45718.00
2023-03-11T20:18:15.440Z,45745.97
2023-03-11T20:20:43.133Z,45749.97
2023-03-11T20:23:10.352Z,45753.97
2023-03-11T20:25:40.921Z,45745.97
2023-03-11T20:28:07.493Z,45749.97
2023-03-11T20:30:34.657Z,45724.00
2023-03-11T20:33:01.345Z,45747.97
2023-03-11T20:35:27.772Z,45725.97
2023-03-11T20:37:54.324Z,45761.97
2023-03-11T20:40:21.204Z,45765.97
2023-03-11T20:42:47.904Z,45749.97
2023-03-11T20:45:17.392Z,45745.97
2023-03-11T20:47:44.321Z,45737.97
2023-03-11T20:50:12.501Z,45737.97
2023-03-11T20:52:39.073Z,45753.97
2023-03-11T20:55:08.199Z,45757.97
2023-03-11T20:57:35.099Z,45753.97
2023-03-11T21:00:01.721Z,45755.97
2023-03-11T21:02:30.829Z,45745.97
2023-03-11T21:04:57.485Z,45733.97
2023-03-11T21:07:24.006Z,45745.97
2023-03-11T21:09:54.368Z,45722.00
2023-03-11T21:12:21.841Z,45741.97
2023-03-11T21:14:48.446Z,45755.97
2023-03-11T21:17:15.349Z,45749.97
2023-03-11T21:19:42.043Z,45769.97
2023-03-11T21:22:08.475Z,45751.97
2023-03-11T21:24:34.872Z,45765.97
2023-03-11T21:27:01.345Z,45769.97
2023-03-11T21:29:28.661Z,45761.97
2023-03-11T21:31:55.172Z,45753.97
2023-03-11T21:34:21.726Z,45755.97
2023-03-11T21:36:48.329Z,45777.94
2023-03-11T21:39:15.190Z,45761.97
2023-03-11T21:41:41.762Z,45769.97
2023-03-11T21:44:08.340Z,45757.97
2023-03-11T21:46:34.937Z,45759.97
2023-03-11T21:49:01.691Z,45757.97
2023-03-11T21:51:29.219Z,45765.97
2023-03-11T21:53:56.284Z,45789.94
2023-03-11T21:56:22.739Z,45759.97
2023-03-11T21:58:50.028Z,45769.97
2023-03-11T22:01:16.716Z,45767.97
2023-03-11T22:03:43.777Z,45767.97
2023-03-11T22:06:12.324Z,45769.97
2023-03-11T22:08:39.526Z,45753.97
2023-03-11T22:11:13.752Z,45765.97
2023-03-11T22:13:40.355Z,45769.97
2023-03-11T22:16:07.535Z,45757.97
2023-03-11T22:18:34.353Z,45755.97
2023-03-11T22:21:01.373Z,45763.97
2023-03-11T22:23:28.211Z,45753.97
2023-03-11T22:25:55.057Z,45753.97
2023-03-11T22:28:22.173Z,45747.97
2023-03-11T22:30:48.583Z,45769.97
2023-03-11T22:33:15.008Z,45779.94
2023-03-11T22:35:49.448Z,45765.97
2023-03-11T22:38:15.901Z,45767.97
2023-03-11T22:40:42.267Z,45769.97
2023-03-11T22:43:09.268Z,45753.97
2023-03-11T22:45:35.691Z,45755.97
2023-03-11T22:48:02.109Z,45745.97
2023-03-11T22:50:28.487Z,45761.97
2023-03-11T22:52:55.122Z,45769.97
2023-03-11T22:55:21.553Z,45757.97
2023-03-11T22:57:47.979Z,45743.97
2023-03-11T23:00:17.776Z,45765.97
2023-03-11T23:02:48.649Z,45779.94
2023-03-11T23:05:15.942Z,45745.97
2023-03-11T23:07:42.931Z,45757.97
2023-03-11T23:10:11.145Z,45753.97
2023-03-11T23:12:38.641Z,45741.97
2023-03-11T23:15:08.752Z,45757.97
2023-03-11T23:17:35.526Z,45757.97
2023-03-11T23:20:04.721Z,45733.97
2023-03-11T23:22:34.327Z,45769.97
2023-03-11T23:25:02.164Z,45769.97
2023-03-11T23:27:29.031Z,45757.97
2023-03-11T23:29:55.547Z,45747.97
2023-03-11T23:32:21.917Z,45729.97
2023-03-11T23:34:48.379Z,45747.97
2023-03-11T23:37:14.834Z,45769.97
2023-03-11T23:39:41.347Z,45749.97
2023-03-11T23:42:22.599Z,45729.97
2023-03-11T23:44:51.812Z,45741.97
2023-03-11T23:47:18.273Z,45737.97
2023-03-11T23:49:44.656Z,45735.97
2023-03-11T23:52:11.101Z,45729.97
2023-03-11T23:54:37.495Z,45733.97
2023-03-11T23:57:03.874Z,45722.00
2023-03-11T23:59:30.409Z,45725.97
